Time;durP1;ratioP1;P1;durP2;ratioP2;P2;SDS_P1;SDS_P2;PMS_P1;PMS_P2;Temp;Humidity;BMP_temperature;BMP_pressure;BME280_temperature;BME280_humidity;BME280_pressure;Samples;Min_cycle;Max_cycle;Signal;HPM_P1;HPM_P2
2022/03/14 00:02:13;;;;;;;26.23;16.35;;;;;;;1.94;100.00;101680.22;5051038;28;20419;-69
2022/03/14 00:04:38;;;;;;;23.50;14.90;;;;;;;2.18;100.00;101699.41;5050593;28;20225;-69
2022/03/14 00:07:05;;;;;;;17.63;12.90;;;;;;;1.83;100.00;101669.81;5032809;28;20258;-70
2022/03/14 00:09:30;;;;;;;18.40;12.25;;;;;;;1.73;100.00;101651.09;5050809;28;20029;-70
2022/03/14 00:11:57;;;;;;;16.98;11.90;;;;;;;1.91;100.00;101663.41;5050879;28;20036;-70
2022/03/14 00:14:27;;;;;;;18.25;12.35;;;;;;;1.96;100.00;101676.09;5050976;28;20409;-70
2022/03/14 00:16:54;;;;;;;18.08;12.68;;;;;;;2.22;100.00;101707.94;5050749;28;20055;-70
2022/03/14 00:19:20;;;;;;;24.42;15.52;;;;;;;2.16;100.00;101687.66;5050342;28;20029;-69
2022/03/14 00:21:47;;;;;;;24.38;15.20;;;;;;;2.16;100.00;101712.75;5051161;28;20029;-70
2022/03/14 00:24:13;;;;;;;25.52;16.63;;;;;;;2.12;100.00;101714.25;5050475;28;20087;-70
2022/03/14 00:26:39;;;;;;;23.33;14.18;;;;;;;2.05;100.00;101689.78;5050398;28;20025;-69
2022/03/14 00:29:06;;;;;;;21.88;15.02;;;;;;;1.83;100.00;101701.53;5050947;28;20060;-69
2022/03/14 00:31:31;;;;;;;22.30;13.75;;;;;;;1.99;100.00;101702.13;5050397;28;20033;-70
2022/03/14 00:33:57;;;;;;;20.35;13.02;;;;;;;2.16;100.00;101695.19;5032653;28;20079;-69
2022/03/14 00:36:24;;;;;;;20.33;13.10;;;;;;;1.83;100.00;101692.38;5050649;28;20419;-70
2022/03/14 00:38:49;;;;;;;18.17;12.32;;;;;;;1.82;100.00;101684.78;5050639;28;20053;-70
2022/03/14 00:41:16;;;;;;;20.02;12.35;;;;;;;1.91;100.00;101690.97;5050682;28;20048;-70
2022/03/14 00:43:42;;;;;;;18.27;11.80;;;;;;;1.82;100.00;101695.69;5050437;28;20094;-69
2022/03/14 00:46:08;;;;;;;17.17;11.18;;;;;;;1.86;100.00;101686.59;5032670;28;20021;-70
2022/03/14 00:48:35;;;;;;;15.77;11.00;;;;;;;1.98;100.00;101729.66;5050244;28;20036;-70
2022/03/14 00:51:02;;;;;;;15.88;10.63;;;;;;;2.05;100.00;101693.94;5050324;28;20033;-67
2022/03/14 00:53:28;;;;;;;17.23;11.15;;;;;;;1.92;100.00;101687.69;5050498;28;20036;-69
2022/03/14 00:55:54;;;;;;;14.73;10.43;;;;;;;1.99;100.00;101712.16;5053828;28;20029;-70
2022/03/14 00:58:19;;;;;;;17.45;10.43;;;;;;;2.19;100.00;101712.81;5054271;28;20419;-70
2022/03/14 01:03:20;;;;;;;19.00;11.88;;;;;;;1.97;100.00;101700.34;3601656;22;10000803;-71
2022/03/14 01:05:46;;;;;;;16.48;10.73;;;;;;;1.74;100.00;101692.06;4995111;28;20038;-71
2022/03/14 01:08:11;;;;;;;18.13;11.30;;;;;;;2.00;100.00;101723.03;4995074;28;20034;-72
2022/03/14 01:10:37;;;;;;;15.07;10.32;;;;;;;1.88;100.00;101725.13;4995061;28;20076;-71
2022/03/14 01:13:03;;;;;;;15.68;10.10;;;;;;;2.09;100.00;101729.22;4994648;28;20030;-72
2022/03/14 01:15:29;;;;;;;15.35;10.57;;;;;;;2.05;100.00;101722.41;4995114;28;20022;-71
2022/03/14 01:17:55;;;;;;;15.60;10.50;;;;;;;1.85;100.00;101700.78;4995045;28;20054;-72
2022/03/14 01:20:21;;;;;;;16.85;11.35;;;;;;;2.24;100.00;101728.91;4994976;28;20034;-71
2022/03/14 01:22:47;;;;;;;17.42;10.48;;;;;;;2.05;100.00;101734.06;4994721;28;20026;-72
2022/03/14 01:25:12;;;;;;;18.10;10.60;;;;;;;2.06;100.00;101730.78;4994641;28;20480;-72
2022/03/14 01:27:38;;;;;;;16.70;10.68;;;;;;;2.09;100.00;101698.25;4994434;28;20030;-72
2022/03/14 01:30:04;;;;;;;17.42;11.25;;;;;;;2.15;100.00;101726.06;4994952;28;20094;-72
2022/03/14 01:32:29;;;;;;;15.02;10.45;;;;;;;2.13;100.00;101730.19;4993840;28;20093;-72
2022/03/14 01:34:55;;;;;;;19.95;12.57;;;;;;;2.38;100.00;101695.91;4994467;28;20038;-72
2022/03/14 01:37:20;;;;;;;22.23;13.70;;;;;;;2.05;100.00;101714.00;4994801;28;20488;-71
2022/03/14 01:39:46;;;;;;;23.23;14.15;;;;;;;2.30;100.00;101714.88;4994702;28;20186;-71
2022/03/14 01:42:19;;;;;;;22.13;13.40;;;;;;;2.24;100.00;101707.16;4994143;28;20023;-71
2022/03/14 01:44:47;;;;;;;22.13;14.10;;;;;;;2.31;100.00;101740.84;4994266;28;20424;-71
2022/03/14 01:47:14;;;;;;;21.92;13.95;;;;;;;2.67;100.00;101752.09;4994341;28;20030;-72
2022/03/14 01:49:44;;;;;;;20.55;14.10;;;;;;;1.89;100.00;101711.78;4994171;28;20023;-71
2022/03/14 01:52:10;;;;;;;21.30;14.00;;;;;;;2.52;100.00;101747.41;4994116;28;20037;-72
2022/03/14 01:54:37;;;;;;;23.23;14.55;;;;;;;2.15;100.00;101693.47;4993974;28;20066;-71
2022/03/14 01:57:04;;;;;;;23.13;15.20;;;;;;;1.81;100.00;101753.25;4994272;28;20121;-72
2022/03/14 01:59:29;;;;;;;22.88;14.30;;;;;;;2.37;100.00;101736.88;4994354;28;20045;-72
2022/03/14 02:01:58;;;;;;;24.65;15.10;;;;;;;2.13;100.00;101747.72;4980006;28;20507;-71
2022/03/14 02:04:24;;;;;;;24.27;15.60;;;;;;;1.99;100.00;101751.41;5013843;28;20049;-72
2022/03/14 02:06:53;;;;;;;28.52;17.58;;;;;;;2.21;100.00;101722.13;5013571;28;20021;-71
2022/03/14 02:09:19;;;;;;;26.05;17.40;;;;;;;2.31;100.00;101759.25;5013417;28;20030;-72
2022/03/14 02:11:57;;;;;;;26.63;15.80;;;;;;;1.99;100.00;101751.41;5013723;28;20033;-72
2022/03/14 02:14:24;;;;;;;20.75;13.95;;;;;;;2.03;100.00;101741.56;5013269;28;20539;-70
2022/03/14 02:16:50;;;;;;;21.40;14.07;;;;;;;2.33;100.00;101756.78;5013479;28;20022;-72
2022/03/14 02:19:17;;;;;;;18.67;12.20;;;;;;;2.28;100.00;101770.81;4995819;28;20051;-71
2022/03/14 02:21:42;;;;;;;17.33;11.15;;;;;;;2.12;100.00;101778.66;5013047;28;20399;-71
2022/03/14 02:24:08;;;;;;;18.23;11.95;;;;;;;2.09;100.00;101741.75;5013185;28;20026;-72
2022/03/14 02:26:40;;;;;;;18.10;11.15;;;;;;;2.11;100.00;101780.28;5012966;28;20045;-72
2022/03/14 02:29:07;;;;;;;17.73;10.95;;;;;;;1.92;100.00;101755.38;5013125;28;20479;-72
2022/03/14 02:31:36;;;;;;;16.73;11.57;;;;;;;2.13;100.00;101752.75;5013115;28;20030;-72
2022/03/14 02:34:05;;;;;;;20.92;12.02;;;;;;;2.26;100.00;101789.97;5012975;28;20087;-72
2022/03/14 02:36:31;;;;;;;17.65;12.60;;;;;;;2.00;100.00;101753.13;5013023;28;20033;-71
2022/03/14 02:38:57;;;;;;;21.40;13.18;;;;;;;2.12;100.00;101791.19;5013052;28;20030;-72
2022/03/14 02:41:23;;;;;;;20.88;13.45;;;;;;;1.95;100.00;101768.00;5013179;28;20032;-71
2022/03/14 02:43:48;;;;;;;22.25;13.55;;;;;;;1.77;100.00;101773.22;5012770;28;20029;-71
2022/03/14 02:46:15;;;;;;;21.40;13.68;;;;;;;1.84;100.00;101793.50;5012716;28;20109;-71
2022/03/14 02:48:40;;;;;;;20.15;13.82;;;;;;;1.89;100.00;101792.00;5012665;28;20030;-70
2022/03/14 02:51:06;;;;;;;22.23;14.05;;;;;;;2.12;100.00;101796.19;5012838;28;20037;-71
2022/03/14 02:53:32;;;;;;;21.50;13.35;;;;;;;2.12;100.00;101792.00;5012637;28;20025;-71
2022/03/14 02:55:57;;;;;;;21.88;13.93;;;;;;;2.38;100.00;101805.47;5012886;28;20109;-71
2022/03/14 02:58:23;;;;;;;19.73;13.98;;;;;;;1.73;100.00;101771.41;5013084;28;20032;-72
2022/03/14 03:00:50;;;;;;;20.92;13.13;;;;;;;2.06;100.00;101806.00;5011461;28;20030;-71
2022/03/14 03:03:15;;;;;;;20.80;14.05;;;;;;;2.20;100.00;101794.81;5012710;28;20049;-71
2022/03/14 03:05:43;;;;;;;19.85;14.48;;;;;;;1.89;100.00;101757.75;5011064;28;20022;-71
2022/03/14 03:08:10;;;;;;;24.70;15.40;;;;;;;2.05;100.00;101806.81;5012634;28;20053;-71
2022/03/14 03:10:36;;;;;;;22.02;14.95;;;;;;;2.41;100.00;101810.59;5012427;28;20033;-72
2022/03/14 03:13:05;;;;;;;27.45;15.93;;;;;;;2.25;100.00;101821.75;5012389;28;20087;-71
2022/03/14 03:15:30;;;;;;;23.70;15.65;;;;;;;2.32;100.00;101812.78;5012355;28;20049;-71
2022/03/14 03:17:56;;;;;;;24.73;15.52;;;;;;;2.29;100.00;101815.19;5011513;28;20072;-71
2022/03/14 03:20:22;;;;;;;22.58;15.82;;;;;;;2.20;100.00;101794.81;5012304;28;20460;-72
2022/03/14 03:22:49;;;;;;;32.65;19.10;;;;;;;2.08;100.00;101822.81;5012061;28;20066;-73
2022/03/14 03:25:15;;;;;;;32.55;19.90;;;;;;;2.25;100.00;101816.75;5012369;28;20022;-71
2022/03/14 03:27:41;;;;;;;30.02;19.40;;;;;;;2.40;100.00;101797.19;5012089;28;20022;-71
2022/03/14 03:30:07;;;;;;;32.70;20.02;;;;;;;2.29;100.00;101826.09;5011830;28;20026;-71
2022/03/14 03:32:32;;;;;;;31.17;19.85;;;;;;;2.00;100.00;101800.78;5011854;28;20443;-71
2022/03/14 03:34:58;;;;;;;28.88;18.33;;;;;;;1.97;100.00;101809.03;5012340;28;20113;-72
2022/03/14 03:37:23;;;;;;;32.67;20.08;;;;;;;1.85;100.00;101807.72;5012244;28;20486;-71
2022/03/14 03:39:49;;;;;;;35.10;19.50;;;;;;;2.00;100.00;101819.16;5011890;28;20033;-73
2022/03/14 03:42:14;;;;;;;28.83;17.65;;;;;;;1.64;100.00;101805.31;5011701;28;20026;-72
2022/03/14 03:44:39;;;;;;;26.05;17.02;;;;;;;1.86;100.00;101810.31;5011394;28;20032;-71
2022/03/14 03:47:05;;;;;;;32.53;19.23;;;;;;;1.94;100.00;101841.50;5011634;28;20033;-71
2022/03/14 03:49:32;;;;;;;31.67;20.67;;;;;;;1.81;100.00;101818.44;5010449;28;20107;-71
2022/03/14 03:51:57;;;;;;;32.33;22.15;;;;;;;1.65;100.00;101819.53;4994315;28;20028;-71
2022/03/14 03:54:22;;;;;;;35.33;22.58;;;;;;;1.96;100.00;101846.59;5011830;28;20108;-71
2022/03/14 03:56:49;;;;;;;26.15;17.98;;;;;;;1.68;100.00;101830.50;5011669;28;20149;-71
2022/03/14 03:59:15;;;;;;;24.92;16.73;;;;;;;1.84;100.00;101858.69;5011582;28;20133;-71
2022/03/14 04:01:41;;;;;;;21.50;14.57;;;;;;;1.81;100.00;101848.53;5010153;28;20468;-67
2022/03/14 04:04:07;;;;;;;21.30;14.70;;;;;;;1.40;100.00;101857.84;5011552;28;20065;-71
2022/03/14 04:06:34;;;;;;;23.05;15.32;;;;;;;1.56;100.00;101872.69;5011429;28;20037;-71
2022/03/14 04:09:04;;;;;;;28.27;16.25;;;;;;;1.22;100.00;101842.09;5011805;28;20022;-72
2022/03/14 04:11:29;;;;;;;22.60;14.35;;;;;;;1.64;100.00;101875.47;5011382;28;20113;-70
2022/03/14 04:13:58;;;;;;;22.13;14.77;;;;;;;1.03;100.00;101833.78;5011416;28;20109;-71
2022/03/14 04:16:26;;;;;;;20.83;14.73;;;;;;;0.98;100.00;101845.25;5011274;28;20471;-70
2022/03/14 04:18:52;;;;;;;21.48;15.45;;;;;;;0.80;100.00;101857.84;5011047;28;20036;-70
2022/03/14 04:21:17;;;;;;;40.40;19.80;;;;;;;1.03;100.00;101866.34;5010104;28;20026;-70
2022/03/14 04:23:43;;;;;;;43.00;21.98;;;;;;;1.31;100.00;101849.94;5011239;28;20040;-70
2022/03/14 04:26:09;;;;;;;46.70;23.80;;;;;;;1.14;100.00;101863.47;5011113;28;20022;-70
2022/03/14 04:28:36;;;;;;;68.72;35.03;;;;;;;1.15;100.00;101864.31;5011351;28;20022;-70
2022/03/14 04:31:03;;;;;;;62.45;33.97;;;;;;;0.98;100.00;101891.16;5013206;28;20026;-70
2022/03/14 04:33:30;;;;;;;60.65;32.65;;;;;;;1.25;100.00;101893.97;5014865;28;20518;-71
2022/03/14 04:35:57;;;;;;;69.15;38.42;;;;;;;1.21;100.00;101887.13;5015096;28;20085;-70
2022/03/14 04:38:23;;;;;;;62.38;37.20;;;;;;;0.98;100.00;101906.19;5014826;28;20030;-71
2022/03/14 04:40:49;;;;;;;87.72;40.80;;;;;;;0.46;100.00;101854.72;5015199;28;20032;-72
2022/03/14 04:43:15;;;;;;;95.15;48.53;;;;;;;0.75;100.00;101899.38;5014895;28;20096;-74
2022/03/14 04:45:41;;;;;;;77.57;41.33;;;;;;;0.40;100.00;101884.47;5014631;28;20026;-72
2022/03/14 04:48:07;;;;;;;59.60;31.38;;;;;;;0.17;100.00;101885.97;5013860;28;20499;-71
2022/03/14 04:50:35;;;;;;;51.38;27.58;;;;;;;1.25;100.00;101914.81;4997302;28;20038;-70
2022/03/14 04:53:00;;;;;;;55.25;29.27;;;;;;;1.17;100.00;101903.63;4995036;28;20113;-71
2022/03/14 04:55:25;;;;;;;75.35;39.10;;;;;;;1.14;100.00;101925.19;4994662;28;20117;-71
2022/03/14 04:57:51;;;;;;;95.88;50.40;;;;;;;0.99;100.00;101904.53;4977601;28;20034;-71
2022/03/14 05:00:17;;;;;;;99.07;55.50;;;;;;;1.04;100.00;101901.44;4994648;28;20026;-71
2022/03/14 05:02:43;;;;;;;88.97;53.28;;;;;;;1.00;100.00;101901.25;4994613;28;20138;-74
2022/03/14 05:05:12;;;;;;;81.35;50.72;;;;;;;1.07;100.00;101924.06;4995063;28;20522;-71
2022/03/14 05:07:39;;;;;;;51.72;36.05;;;;;;;0.89;100.00;101910.81;4994630;28;20030;-71
2022/03/14 05:10:08;;;;;;;46.95;32.30;;;;;;;0.91;100.00;101933.41;4976908;28;20066;-71
2022/03/14 05:12:34;;;;;;;49.83;34.00;;;;;;;0.46;100.00;101922.25;4994565;28;20101;-65
2022/03/14 05:15:00;;;;;;;49.38;33.88;;;;;;;1.20;100.00;101903.78;4994050;28;20041;-71
2022/03/14 05:17:27;;;;;;;47.25;31.67;;;;;;;1.88;100.00;101941.59;4993018;28;20030;-69
2022/03/14 05:19:53;;;;;;;48.08;33.60;;;;;;;5.11;100.00;101932.00;4994255;28;20117;-70
2022/03/14 05:22:19;;;;;;;47.25;32.35;;;;;;;5.48;100.00;101936.28;4994052;28;20074;-68
2022/03/14 05:24:45;;;;;;;48.42;33.03;;;;;;;5.83;100.00;101923.72;4993849;28;20082;-68
2022/03/14 05:27:12;;;;;;;56.53;35.30;;;;;;;5.63;98.88;101921.50;4993812;28;20097;-67
2022/03/14 05:29:37;;;;;;;81.55;49.33;;;;;;;5.93;98.44;101938.25;4992440;28;20532;-70
2022/03/14 05:32:03;;;;;;;62.40;38.80;;;;;;;5.92;97.89;101943.28;4993864;28;20058;-70
2022/03/14 05:34:29;;;;;;;66.38;40.50;;;;;;;5.16;97.96;101946.44;4987051;28;20093;-70
2022/03/14 05:36:54;;;;;;;66.88;38.22;;;;;;;3.26;100.00;101925.69;4974686;28;20026;-69
2022/03/14 05:39:20;;;;;;;74.38;47.83;;;;;;;2.90;100.00;101946.19;4973749;28;20030;-72
2022/03/14 05:41:45;;;;;;;142.85;87.50;;;;;;;3.19;100.00;101953.91;4956767;28;20035;-71
2022/03/14 05:44:11;;;;;;;59.53;36.30;;;;;;;6.15;100.00;101909.28;4974510;28;20049;-73
2022/03/14 05:46:36;;;;;;;103.28;65.03;;;;;;;3.19;100.00;101958.94;4988757;28;20038;-70
2022/03/14 05:49:02;;;;;;;91.43;58.13;;;;;;;3.31;100.00;101934.22;4991973;28;20030;-70
2022/03/14 05:51:27;;;;;;;102.68;67.32;;;;;;;4.03;100.00;101967.53;4973361;28;20131;-69
2022/03/14 05:53:53;;;;;;;92.28;60.15;;;;;;;4.22;100.00;101960.56;4991308;28;20113;-71
2022/03/14 05:56:19;;;;;;;94.40;59.92;;;;;;;4.23;100.00;101928.72;4991230;28;20049;-70
2022/03/14 05:58:44;;;;;;;96.00;60.75;;;;;;;4.59;100.00;101961.66;4990838;28;20419;-69
2022/03/14 06:01:10;;;;;;;104.63;65.68;;;;;;;4.60;100.00;101959.16;4991784;28;20114;-70
2022/03/14 06:03:36;;;;;;;98.68;61.05;;;;;;;4.75;100.00;101967.16;4992150;28;20046;-68
2022/03/14 06:06:02;;;;;;;84.30;55.28;;;;;;;5.06;100.00;101963.78;4993968;28;20031;-72
2022/03/14 06:08:27;;;;;;;68.22;44.95;;;;;;;5.66;100.00;101970.38;4992895;28;20440;-70
2022/03/14 06:10:54;;;;;;;71.90;44.17;;;;;;;5.28;97.89;101941.72;4993201;28;20085;-72
2022/03/14 06:13:20;;;;;;;61.53;38.70;;;;;;;4.44;100.00;101973.81;4993446;28;20583;-70
2022/03/14 06:15:47;;;;;;;59.70;37.95;;;;;;;5.51;100.00;101966.59;4992945;28;20117;-71
2022/03/14 06:18:13;;;;;;;61.58;41.10;;;;;;;5.78;95.64;101980.78;4992123;28;20030;-71
2022/03/14 06:20:38;;;;;;;65.28;41.85;;;;;;;6.00;94.20;101985.50;4993138;28;20039;-72
2022/03/14 06:23:04;;;;;;;64.57;44.95;;;;;;;6.03;89.87;101972.97;4992714;28;20072;-71
2022/03/14 06:25:29;;;;;;;49.38;34.67;;;;;;;6.59;83.89;101998.59;4993500;28;20028;-72
2022/03/14 06:27:55;;;;;;;64.97;43.25;;;;;;;6.35;82.67;102003.13;4992983;28;20081;-71
2022/03/14 06:30:21;;;;;;;59.75;42.17;;;;;;;6.70;80.26;101969.34;4992812;28;20065;-71
2022/03/14 06:32:50;;;;;;;45.05;32.38;;;;;;;6.61;78.90;102002.88;4993449;28;20037;-70
2022/03/14 06:35:17;;;;;;;20.52;12.48;;;;;;;6.76;72.50;101980.44;4992866;28;20117;-71
2022/03/14 06:37:43;;;;;;;20.10;13.48;;;;;;;7.05;72.84;101982.66;4975421;28;20069;-71
2022/03/14 06:40:09;;;;;;;17.95;13.52;;;;;;;6.64;74.15;102013.03;4993198;28;20027;-71
2022/03/14 06:42:41;;;;;;;20.25;13.50;;;;;;;7.45;71.50;102010.38;4992924;28;20096;-70
2022/03/14 06:45:11;;;;;;;17.55;11.02;;;;;;;7.07;69.37;101981.88;4993067;28;20030;-71
2022/03/14 06:47:38;;;;;;;21.67;14.13;;;;;;;8.18;65.67;101994.69;4992933;28;20038;-72
2022/03/14 06:50:05;;;;;;;20.05;13.88;;;;;;;7.36;68.51;101988.31;4992449;28;20105;-71
2022/03/14 06:52:31;;;;;;;22.83;12.85;;;;;;;7.20;71.55;102006.56;4991865;28;20042;-71
2022/03/14 06:54:56;;;;;;;18.38;12.25;;;;;;;8.26;67.29;102016.78;4992540;28;20030;-70
2022/03/14 06:57:22;;;;;;;22.08;11.73;;;;;;;7.52;64.50;101997.00;4992364;28;20081;-71
2022/03/14 06:59:47;;;;;;;12.43;9.10;;;;;;;6.73;66.17;102000.59;4975206;28;20029;-71
2022/03/14 07:02:13;;;;;;;13.40;9.18;;;;;;;7.54;61.30;101998.75;4998254;28;20044;-71
2022/03/14 07:04:38;;;;;;;11.88;8.68;;;;;;;6.26;62.38;102002.94;4994785;28;20049;-71
2022/03/14 07:07:04;;;;;;;11.90;8.52;;;;;;;7.46;58.92;101986.78;5012068;28;20033;-71
2022/03/14 07:09:30;;;;;;;12.30;8.68;;;;;;;7.94;58.01;102010.38;5011851;28;20113;-70
2022/03/14 07:11:56;;;;;;;12.05;8.90;;;;;;;7.09;59.47;101992.03;5011940;28;20025;-71
2022/03/14 07:14:22;;;;;;;12.60;9.38;;;;;;;8.50;58.75;102003.59;5012239;28;20045;-72
2022/03/14 07:16:48;;;;;;;13.27;8.80;;;;;;;7.00;59.35;102006.19;5012385;28;20030;-71
2022/03/14 07:19:14;;;;;;;11.93;9.00;;;;;;;7.81;59.33;102031.25;5011988;28;20028;-72
2022/03/14 07:21:40;;;;;;;15.82;10.02;;;;;;;7.60;60.00;102038.50;5012172;28;20038;-71
2022/03/14 07:24:07;;;;;;;14.40;9.85;;;;;;;8.10;58.63;102030.00;5011888;28;20030;-71
2022/03/14 07:26:33;;;;;;;12.32;9.70;;;;;;;8.16;59.27;102039.41;5011748;28;20109;-71
2022/03/14 07:28:58;;;;;;;10.40;8.55;;;;;;;8.69;57.52;102010.63;5012421;28;20036;-71
2022/03/14 07:31:24;;;;;;;12.02;8.57;;;;;;;8.98;54.86;102028.72;4994158;28;20029;-72
2022/03/14 07:33:50;;;;;;;10.98;8.32;;;;;;;8.19;53.75;102047.91;5011830;28;20402;-71
2022/03/14 07:36:17;;;;;;;13.77;9.57;;;;;;;8.52;53.52;102012.94;5011840;28;20030;-71
2022/03/14 07:38:43;;;;;;;12.57;8.25;;;;;;;7.85;57.62;102017.81;5011256;28;20030;-69
2022/03/14 07:41:09;;;;;;;12.13;8.15;;;;;;;8.57;53.33;102040.88;5011804;28;20086;-72
2022/03/14 07:43:35;;;;;;;10.15;8.07;;;;;;;7.87;54.61;102021.22;5011580;28;20034;-72
2022/03/14 07:46:01;;;;;;;11.98;9.18;;;;;;;9.74;53.99;102023.56;5011358;28;20025;-71
2022/03/14 07:48:27;;;;;;;11.18;9.10;;;;;;;8.26;54.70;102026.09;5011522;28;20037;-72
2022/03/14 07:50:53;;;;;;;12.15;9.05;;;;;;;8.26;56.99;101998.22;5011391;28;20026;-71
2022/03/14 07:53:18;;;;;;;14.15;9.68;;;;;;;8.38;60.50;102054.97;5011065;28;20034;-71
2022/03/14 07:55:44;;;;;;;13.23;9.93;;;;;;;9.72;58.06;102024.41;4994055;28;20029;-71
2022/03/14 07:58:09;;;;;;;16.70;11.45;;;;;;;8.01;58.04;102031.56;5011653;28;20448;-71
2022/03/14 08:00:35;;;;;;;13.45;10.07;;;;;;;7.80;58.51;102042.22;5011700;28;20026;-71
2022/03/14 08:03:00;;;;;;;12.15;8.45;;;;;;;7.15;59.17;101997.19;5011343;28;20137;-73
2022/03/14 08:05:26;;;;;;;12.75;9.52;;;;;;;7.66;59.22;102020.88;4994175;28;20052;-71
2022/03/14 08:07:53;;;;;;;14.10;10.32;;;;;;;7.43;59.13;102037.31;5011000;28;20065;-71
2022/03/14 08:10:19;;;;;;;13.20;9.50;;;;;;;6.80;61.11;102025.16;4994087;28;20507;-72
2022/03/14 08:12:49;;;;;;;13.18;9.32;;;;;;;7.12;60.11;102035.06;5011138;28;20034;-71
2022/03/14 08:15:22;;;;;;;11.68;9.00;;;;;;;6.66;61.78;102064.47;4993843;28;20100;-65
2022/03/14 08:17:47;;;;;;;15.77;10.00;;;;;;;6.96;62.24;102065.09;4993967;28;20030;-72
2022/03/14 08:20:13;;;;;;;14.05;9.73;;;;;;;6.42;61.84;102068.97;5011660;28;20058;-72
2022/03/14 08:22:39;;;;;;;13.90;8.98;;;;;;;6.83;63.82;102067.34;5011108;28;20029;-72
2022/03/14 08:25:05;;;;;;;14.90;10.38;;;;;;;6.46;63.85;102074.94;5011288;28;20041;-72
2022/03/14 08:27:30;;;;;;;14.18;10.52;;;;;;;6.78;63.67;102077.38;5011326;28;20377;-72
2022/03/14 08:29:56;;;;;;;12.98;9.02;;;;;;;6.35;64.62;102059.56;5011343;28;20057;-72
2022/03/14 08:32:24;;;;;;;11.25;8.60;;;;;;;6.33;65.03;102080.53;5011225;28;20030;-72
2022/03/14 08:34:52;;;;;;;14.57;9.27;;;;;;;6.56;65.82;102070.13;5010920;28;20026;-72
2022/03/14 08:37:18;;;;;;;13.43;8.93;;;;;;;6.67;63.68;102062.78;5011465;28;20040;-72
2022/03/14 08:39:45;;;;;;;14.23;9.52;;;;;;;6.31;64.38;102067.88;5011106;28;20055;-72
2022/03/14 08:42:11;;;;;;;35.80;28.02;;;;;;;6.74;65.69;102047.78;4993579;28;20057;-71
2022/03/14 08:44:36;;;;;;;21.25;12.10;;;;;;;6.99;66.42;102075.28;4993553;28;20586;-72
2022/03/14 08:47:03;;;;;;;13.18;9.73;;;;;;;6.39;67.10;102084.06;4993708;28;20392;-72
2022/03/14 08:49:28;;;;;;;13.77;10.13;;;;;;;7.21;66.58;102045.38;5010519;28;20500;-72
2022/03/14 08:51:54;;;;;;;20.88;13.02;;;;;;;9.32;60.88;102033.31;5011252;28;20045;-72
2022/03/14 08:54:19;;;;;;;15.20;10.57;;;;;;;10.12;56.09;102057.78;5009918;28;20034;-71
2022/03/14 08:56:45;;;;;;;13.73;9.52;;;;;;;9.01;55.76;102054.13;5010819;28;20582;-71
2022/03/14 08:59:12;;;;;;;14.40;8.35;;;;;;;8.37;54.95;102058.34;5010946;28;20112;-71
2022/03/14 09:01:38;;;;;;;12.13;8.35;;;;;;;8.55;53.76;102061.16;5010647;28;20030;-72
2022/03/14 09:04:05;;;;;;;12.95;8.82;;;;;;;8.58;52.84;102051.03;5010477;28;20037;-67
2022/03/14 09:06:31;;;;;;;12.48;8.43;;;;;;;8.77;54.89;102025.94;5010583;28;20053;-72
2022/03/14 09:08:56;;;;;;;11.70;8.57;;;;;;;8.01;52.81;102072.94;5011020;28;20030;-73
2022/03/14 09:11:23;;;;;;;11.50;7.97;;;;;;;7.50;53.92;102041.69;5010873;28;20495;-73
2022/03/14 09:13:49;;;;;;;14.88;7.60;;;;;;;8.92;52.69;102064.16;5010625;28;20092;-66
2022/03/14 09:16:14;;;;;;;9.20;6.72;;;;;;;8.69;50.18;102061.34;5013326;28;20500;-71
2022/03/14 09:18:39;;;;;;;9.90;7.20;;;;;;;8.00;50.03;102067.88;5013837;28;20034;-71
2022/03/14 09:21:05;;;;;;;11.55;7.55;;;;;;;7.96;50.45;102064.44;5014089;28;20423;-72
2022/03/14 09:23:30;;;;;;;9.70;7.35;;;;;;;7.80;49.74;102042.22;5013745;28;20069;-71
2022/03/14 09:25:57;;;;;;;10.98;6.63;;;;;;;7.93;50.14;102071.09;5013892;28;20045;-72
2022/03/14 09:28:22;;;;;;;9.20;6.75;;;;;;;7.45;49.83;102021.34;5013799;28;20038;-71
2022/03/14 09:30:48;;;;;;;9.32;6.35;;;;;;;7.47;49.28;102050.06;5013933;28;20092;-71
2022/03/14 09:33:14;;;;;;;8.93;6.53;;;;;;;8.41;48.60;102082.06;5013497;28;20045;-70
2022/03/14 09:35:40;;;;;;;8.48;6.07;;;;;;;8.05;49.44;102086.50;5013960;28;20030;-72
2022/03/14 09:38:05;;;;;;;11.25;6.72;;;;;;;7.96;49.04;102083.84;5013784;28;20029;-72
2022/03/14 09:40:31;;;;;;;11.15;7.82;;;;;;;8.29;48.69;102082.72;5013801;28;20036;-71
2022/03/14 09:42:59;;;;;;;11.80;6.53;;;;;;;8.05;47.63;102062.03;5013738;28;20117;-71
2022/03/14 09:45:26;;;;;;;11.27;6.68;;;;;;;9.07;46.88;102077.88;4996258;28;20060;-72
2022/03/14 09:48:02;;;;;;;8.35;6.47;;;;;;;8.69;47.30;102076.53;5013466;28;20026;-64
2022/03/14 09:50:34;;;;;;;7.60;5.75;;;;;;;8.32;47.05;102061.66;5013606;28;20036;-72
2022/03/14 09:53:07;;;;;;;8.00;5.88;;;;;;;8.09;46.73;102080.66;5013401;28;20042;-72
2022/03/14 09:55:38;;;;;;;7.57;5.43;;;;;;;9.30;45.94;102081.53;5013479;28;20424;-71
2022/03/14 09:58:04;;;;;;;7.35;5.53;;;;;;;8.65;46.28;102084.94;5013421;28;20126;-72
2022/03/14 10:00:31;;;;;;;10.05;6.50;;;;;;;8.30;46.40;102086.94;5013380;28;20065;-72
2022/03/14 10:02:57;;;;;;;7.68;5.40;;;;;;;8.36;46.79;102091.28;5013311;28;20104;-72
2022/03/14 10:05:23;;;;;;;6.68;5.47;;;;;;;8.14;46.57;102082.44;5013391;28;20030;-73
2022/03/14 10:07:50;;;;;;;10.23;6.60;;;;;;;8.22;47.36;102070.75;5013484;28;20026;-72
2022/03/14 10:10:16;;;;;;;10.63;7.38;;;;;;;8.20;47.70;102090.13;5013229;28;20036;-72
2022/03/14 10:12:44;;;;;;;6.82;5.43;;;;;;;8.07;46.14;102060.38;5012928;28;20496;-72
2022/03/14 10:15:11;;;;;;;7.30;5.15;;;;;;;9.46;45.13;102082.56;5013011;28;20552;-72
2022/03/14 10:17:37;;;;;;;6.25;4.97;;;;;;;10.51;42.85;102079.22;5013270;28;20042;-72
2022/03/14 10:20:06;;;;;;;5.85;4.85;;;;;;;8.37;45.55;102065.09;5012949;28;20113;-72
2022/03/14 10:22:35;;;;;;;6.28;4.80;;;;;;;8.96;44.89;102068.41;5013277;28;20030;-72
2022/03/14 10:25:04;;;;;;;7.32;5.32;;;;;;;9.29;44.12;102040.91;5012798;28;20034;-71
2022/03/14 10:27:33;;;;;;;7.72;5.57;;;;;;;9.38;43.47;102046.06;5012909;28;20030;-72
2022/03/14 10:29:58;;;;;;;7.55;6.20;;;;;;;9.17;45.57;102083.94;5013221;28;20036;-73
2022/03/14 10:32:31;;;;;;;7.65;5.75;;;;;;;8.83;45.35;102071.66;5013070;28;20484;-72
2022/03/14 10:35:05;;;;;;;7.35;5.93;;;;;;;8.87;44.80;102046.34;5013082;28;20079;-72
2022/03/14 10:37:32;;;;;;;11.00;6.28;;;;;;;7.88;45.42;102056.69;5012712;28;20112;-72
2022/03/14 10:40:05;;;;;;;10.20;7.00;;;;;;;9.20;45.76;102044.19;4995231;28;20407;-72
2022/03/14 10:42:57;;;;;;;8.20;5.88;;;;;;;9.25;44.75;102079.78;5013300;28;20030;-73
2022/03/14 10:45:23;;;;;;;8.98;5.70;;;;;;;11.37;42.51;102070.28;4990561;28;20034;-73
2022/03/14 10:47:57;;;;;;;9.65;6.07;;;;;;;11.90;41.91;102066.16;5012955;28;20038;-73
2022/03/14 10:50:36;;;;;;;6.75;4.95;;;;;;;12.40;41.22;102052.50;5012738;28;20029;-72
2022/03/14 10:53:07;;;;;;;7.47;5.78;;;;;;;11.43;42.00;102051.63;5012807;28;20056;-73
2022/03/14 10:55:40;;;;;;;7.60;5.35;;;;;;;11.56;40.92;102045.69;5012612;28;20067;-72
2022/03/14 10:58:23;;;;;;;6.63;5.50;;;;;;;10.82;42.52;102043.78;5012388;28;20119;-71
2022/03/14 11:00:56;;;;;;;7.05;5.60;;;;;;;11.53;42.29;102040.59;4994170;28;20548;-73
2022/03/14 11:03:30;;;;;;;10.63;6.00;;;;;;;11.79;41.59;102038.94;5012319;28;20046;-71
2022/03/14 11:05:58;;;;;;;8.85;7.28;;;;;;;13.48;39.63;102029.06;5012070;28;20466;-71
2022/03/14 11:08:24;;;;;;;9.23;5.78;;;;;;;9.50;41.92;102021.69;5012083;28;20136;-70
2022/03/14 11:10:50;;;;;;;9.38;6.15;;;;;;;9.99;43.70;102024.59;5011540;28;20253;-71
2022/03/14 11:13:15;;;;;;;7.20;5.65;;;;;;;9.83;44.67;102022.78;5011750;28;20034;-72
2022/03/14 11:15:41;;;;;;;8.55;5.93;;;;;;;11.40;43.14;102044.81;5011996;28;20455;-72
2022/03/14 11:18:06;;;;;;;6.60;5.38;;;;;;;11.15;41.46;102048.16;4994271;28;20030;-71